sensor_id;sensor_type;location;lat;lon;timestamp;temperature;humidity
71297;SHT31;59082;50.658;4.608;2022-07-25T00:00:04;21.06;74.47
71297;SHT31;59082;50.658;4.608;2022-07-25T00:02:30;21.05;74.68
71297;SHT31;59082;50.658;4.608;2022-07-25T00:04:56;21.01;74.69
71297;SHT31;59082;50.658;4.608;2022-07-25T00:07:21;20.87;74.97
71297;SHT31;59082;50.658;4.608;2022-07-25T00:09:47;20.95;74.80
71297;SHT31;59082;50.658;4.608;2022-07-25T00:12:12;20.98;74.90
71297;SHT31;59082;50.658;4.608;2022-07-25T00:14:38;20.92;74.82
71297;SHT31;59082;50.658;4.608;2022-07-25T00:17:03;20.87;75.05
71297;SHT31;59082;50.658;4.608;2022-07-25T00:19:29;20.91;74.82
71297;SHT31;59082;50.658;4.608;2022-07-25T00:21:54;20.85;74.75
71297;SHT31;59082;50.658;4.608;2022-07-25T00:24:20;20.83;74.99
71297;SHT31;59082;50.658;4.608;2022-07-25T00:26:45;20.84;75.05
71297;SHT31;59082;50.658;4.608;2022-07-25T00:29:11;20.78;74.87
71297;SHT31;59082;50.658;4.608;2022-07-25T00:31:36;20.65;75.07
71297;SHT31;59082;50.658;4.608;2022-07-25T00:34:02;20.65;75.31
71297;SHT31;59082;50.658;4.608;2022-07-25T00:36:27;20.63;75.31
71297;SHT31;59082;50.658;4.608;2022-07-25T00:38:53;20.64;75.77
71297;SHT31;59082;50.658;4.608;2022-07-25T00:41:18;20.58;75.43
71297;SHT31;59082;50.658;4.608;2022-07-25T00:43:45;20.50;75.90
71297;SHT31;59082;50.658;4.608;2022-07-25T00:46:15;20.61;75.81
71297;SHT31;59082;50.658;4.608;2022-07-25T00:48:40;20.51;75.60
71297;SHT31;59082;50.658;4.608;2022-07-25T00:51:07;20.46;75.76
71297;SHT31;59082;50.658;4.608;2022-07-25T00:53:33;20.40;76.08
71297;SHT31;59082;50.658;4.608;2022-07-25T00:55:58;20.47;76.08
71297;SHT31;59082;50.658;4.608;2022-07-25T00:58:24;20.50;76.18
71297;SHT31;59082;50.658;4.608;2022-07-25T01:00:49;20.56;75.86
71297;SHT31;59082;50.658;4.608;2022-07-25T01:03:15;20.48;76.05
71297;SHT31;59082;50.658;4.608;2022-07-25T01:05:41;20.53;76.01
71297;SHT31;59082;50.658;4.608;2022-07-25T01:08:07;20.60;75.89
71297;SHT31;59082;50.658;4.608;2022-07-25T01:10:33;20.44;76.40
71297;SHT31;59082;50.658;4.608;2022-07-25T01:12:59;20.40;76.47
71297;SHT31;59082;50.658;4.608;2022-07-25T01:15:26;20.44;76.41
71297;SHT31;59082;50.658;4.608;2022-07-25T01:17:51;20.34;76.55
71297;SHT31;59082;50.658;4.608;2022-07-25T01:20:28;20.44;76.53
71297;SHT31;59082;50.658;4.608;2022-07-25T01:22:54;20.40;76.60
71297;SHT31;59082;50.658;4.608;2022-07-25T01:25:21;20.41;76.48
71297;SHT31;59082;50.658;4.608;2022-07-25T01:27:48;20.44;76.48
71297;SHT31;59082;50.658;4.608;2022-07-25T01:30:15;20.41;76.50
71297;SHT31;59082;50.658;4.608;2022-07-25T01:32:42;20.23;76.75
71297;SHT31;59082;50.658;4.608;2022-07-25T01:35:09;20.30;77.10
71297;SHT31;59082;50.658;4.608;2022-07-25T01:37:35;20.30;76.92
71297;SHT31;59082;50.658;4.608;2022-07-25T01:40:01;20.40;76.54
71297;SHT31;59082;50.658;4.608;2022-07-25T01:42:26;20.34;76.91
71297;SHT31;59082;50.658;4.608;2022-07-25T01:44:52;20.32;77.05
71297;SHT31;59082;50.658;4.608;2022-07-25T01:47:18;20.17;77.32
71297;SHT31;59082;50.658;4.608;2022-07-25T01:49:43;20.27;77.06
71297;SHT31;59082;50.658;4.608;2022-07-25T01:52:10;20.17;77.26
71297;SHT31;59082;50.658;4.608;2022-07-25T01:54:36;20.17;77.41
71297;SHT31;59082;50.658;4.608;2022-07-25T01:57:03;20.23;77.35
71297;SHT31;59082;50.658;4.608;2022-07-25T01:59:29;20.25;77.22
71297;SHT31;59082;50.658;4.608;2022-07-25T02:01:54;20.27;77.25
71297;SHT31;59082;50.658;4.608;2022-07-25T02:04:20;20.23;77.35
71297;SHT31;59082;50.658;4.608;2022-07-25T02:06:45;20.16;77.51
71297;SHT31;59082;50.658;4.608;2022-07-25T02:09:11;20.13;77.76
71297;SHT31;59082;50.658;4.608;2022-07-25T02:11:36;20.05;78.02
71297;SHT31;59082;50.658;4.608;2022-07-25T02:14:02;20.09;77.94
71297;SHT31;59082;50.658;4.608;2022-07-25T02:16:27;20.12;78.05
71297;SHT31;59082;50.658;4.608;2022-07-25T02:18:53;20.08;77.87
71297;SHT31;59082;50.658;4.608;2022-07-25T02:21:19;20.02;77.95
71297;SHT31;59082;50.658;4.608;2022-07-25T02:23:45;20.10;77.71
71297;SHT31;59082;50.658;4.608;2022-07-25T02:26:12;20.10;77.57
71297;SHT31;59082;50.658;4.608;2022-07-25T02:28:38;20.12;77.54
71297;SHT31;59082;50.658;4.608;2022-07-25T02:31:03;20.22;77.49
71297;SHT31;59082;50.658;4.608;2022-07-25T02:33:29;20.19;77.17
71297;SHT31;59082;50.658;4.608;2022-07-25T02:35:55;20.13;77.32
71297;SHT31;59082;50.658;4.608;2022-07-25T02:38:21;20.13;76.89
71297;SHT31;59082;50.658;4.608;2022-07-25T02:40:48;20.13;77.00
71297;SHT31;59082;50.658;4.608;2022-07-25T02:43:15;20.16;76.76
71297;SHT31;59082;50.658;4.608;2022-07-25T02:45:40;20.20;76.61
71297;SHT31;59082;50.658;4.608;2022-07-25T02:48:06;20.16;76.47
71297;SHT31;59082;50.658;4.608;2022-07-25T02:50:32;20.19;76.55
71297;SHT31;59082;50.658;4.608;2022-07-25T02:52:57;20.12;76.66
71297;SHT31;59082;50.658;4.608;2022-07-25T02:55:23;20.22;76.86
71297;SHT31;59082;50.658;4.608;2022-07-25T02:57:49;20.20;77.15
71297;SHT31;59082;50.658;4.608;2022-07-25T03:00:15;20.20;77.11
71297;SHT31;59082;50.658;4.608;2022-07-25T03:02:41;20.25;76.83
71297;SHT31;59082;50.658;4.608;2022-07-25T03:05:11;20.27;76.71
71297;SHT31;59082;50.658;4.608;2022-07-25T03:07:38;20.22;77.08
71297;SHT31;59082;50.658;4.608;2022-07-25T03:10:05;20.13;77.49
71297;SHT31;59082;50.658;4.608;2022-07-25T03:12:31;19.89;78.18
71297;SHT31;59082;50.658;4.608;2022-07-25T03:15:00;19.85;78.82
71297;SHT31;59082;50.658;4.608;2022-07-25T03:17:27;19.96;78.50
71297;SHT31;59082;50.658;4.608;2022-07-25T03:19:53;20.00;78.24
71297;SHT31;59082;50.658;4.608;2022-07-25T03:22:19;20.10;76.67
71297;SHT31;59082;50.658;4.608;2022-07-25T03:24:45;20.13;77.15
71297;SHT31;59082;50.658;4.608;2022-07-25T03:27:11;20.05;77.91
71297;SHT31;59082;50.658;4.608;2022-07-25T03:29:36;20.09;77.47
71297;SHT31;59082;50.658;4.608;2022-07-25T03:32:02;20.08;77.04
71297;SHT31;59082;50.658;4.608;2022-07-25T03:34:28;20.04;77.88
71297;SHT31;59082;50.658;4.608;2022-07-25T03:36:54;20.08;77.84
71297;SHT31;59082;50.658;4.608;2022-07-25T03:39:20;20.17;76.45
71297;SHT31;59082;50.658;4.608;2022-07-25T03:41:46;20.19;77.14
71297;SHT31;59082;50.658;4.608;2022-07-25T03:44:12;20.16;77.22
71297;SHT31;59082;50.658;4.608;2022-07-25T03:46:37;20.27;76.92
71297;SHT31;59082;50.658;4.608;2022-07-25T03:49:03;20.32;76.69
71297;SHT31;59082;50.658;4.608;2022-07-25T03:51:28;20.30;76.73
71297;SHT31;59082;50.658;4.608;2022-07-25T03:53:54;20.33;76.59
71297;SHT31;59082;50.658;4.608;2022-07-25T03:56:42;20.30;76.48
71297;SHT31;59082;50.658;4.608;2022-07-25T03:59:09;20.27;76.72
71297;SHT31;59082;50.658;4.608;2022-07-25T04:01:35;20.33;76.71
71297;SHT31;59082;50.658;4.608;2022-07-25T04:04:01;20.34;76.54
71297;SHT31;59082;50.658;4.608;2022-07-25T04:06:27;20.26;76.87
71297;SHT31;59082;50.658;4.608;2022-07-25T04:08:53;20.32;77.25
71297;SHT31;59082;50.658;4.608;2022-07-25T04:11:19;20.17;77.73
71297;SHT31;59082;50.658;4.608;2022-07-25T04:13:45;20.22;77.54
71297;SHT31;59082;50.658;4.608;2022-07-25T04:16:11;20.26;77.68
71297;SHT31;59082;50.658;4.608;2022-07-25T04:18:37;20.34;77.20
71297;SHT31;59082;50.658;4.608;2022-07-25T04:21:03;20.30;77.82
71297;SHT31;59082;50.658;4.608;2022-07-25T04:23:29;20.36;77.70
71297;SHT31;59082;50.658;4.608;2022-07-25T04:25:56;20.37;78.15
71297;SHT31;59082;50.658;4.608;2022-07-25T04:28:22;20.41;77.91
71297;SHT31;59082;50.658;4.608;2022-07-25T04:30:48;20.47;77.08
71297;SHT31;59082;50.658;4.608;2022-07-25T04:33:15;20.56;76.85
71297;SHT31;59082;50.658;4.608;2022-07-25T04:35:41;20.64;76.68
71297;SHT31;59082;50.658;4.608;2022-07-25T04:38:06;20.58;77.14
71297;SHT31;59082;50.658;4.608;2022-07-25T04:40:32;20.61;77.12
71297;SHT31;59082;50.658;4.608;2022-07-25T04:42:58;20.63;77.05
71297;SHT31;59082;50.658;4.608;2022-07-25T04:45:24;20.65;77.20
71297;SHT31;59082;50.658;4.608;2022-07-25T04:47:49;20.68;77.14
71297;SHT31;59082;50.658;4.608;2022-07-25T04:50:15;20.78;76.89
71297;SHT31;59082;50.658;4.608;2022-07-25T04:52:41;20.74;77.32
71297;SHT31;59082;50.658;4.608;2022-07-25T04:55:07;20.78;77.43
71297;SHT31;59082;50.658;4.608;2022-07-25T04:57:32;20.74;77.58
71297;SHT31;59082;50.658;4.608;2022-07-25T04:59:58;20.77;77.65
71297;SHT31;59082;50.658;4.608;2022-07-25T05:02:24;20.85;77.43
71297;SHT31;59082;50.658;4.608;2022-07-25T05:04:53;20.92;77.24
71297;SHT31;59082;50.658;4.608;2022-07-25T05:07:18;20.90;77.48
71297;SHT31;59082;50.658;4.608;2022-07-25T05:09:44;20.90;77.60
71297;SHT31;59082;50.658;4.608;2022-07-25T05:12:11;20.95;77.69
71297;SHT31;59082;50.658;4.608;2022-07-25T05:14:37;21.02;77.64
71297;SHT31;59082;50.658;4.608;2022-07-25T05:17:03;20.99;77.78
71297;SHT31;59082;50.658;4.608;2022-07-25T05:19:29;20.96;77.84
71297;SHT31;59082;50.658;4.608;2022-07-25T05:21:56;21.04;77.80
71297;SHT31;59082;50.658;4.608;2022-07-25T05:24:22;20.92;77.92
71297;SHT31;59082;50.658;4.608;2022-07-25T05:26:48;20.91;77.58
71297;SHT31;59082;50.658;4.608;2022-07-25T05:29:14;20.84;77.24
71297;SHT31;59082;50.658;4.608;2022-07-25T05:31:39;20.81;75.93
71297;SHT31;59082;50.658;4.608;2022-07-25T05:34:05;20.88;75.49
71297;SHT31;59082;50.658;4.608;2022-07-25T05:36:31;20.85;74.78
71297;SHT31;59082;50.658;4.608;2022-07-25T05:38:56;20.91;74.91
71297;SHT31;59082;50.658;4.608;2022-07-25T05:41:22;20.87;74.43
71297;SHT31;59082;50.658;4.608;2022-07-25T05:43:47;20.94;74.20
71297;SHT31;59082;50.658;4.608;2022-07-25T05:46:13;20.92;74.10
71297;SHT31;59082;50.658;4.608;2022-07-25T05:48:40;20.98;72.87
71297;SHT31;59082;50.658;4.608;2022-07-25T05:51:06;21.02;71.31
71297;SHT31;59082;50.658;4.608;2022-07-25T05:53:32;21.13;71.02
71297;SHT31;59082;50.658;4.608;2022-07-25T05:55:57;21.36;71.22
71297;SHT31;59082;50.658;4.608;2022-07-25T05:58:23;21.42;71.31
71297;SHT31;59082;50.658;4.608;2022-07-25T06:00:49;21.45;71.10
71297;SHT31;59082;50.658;4.608;2022-07-25T06:03:16;21.36;71.23
71297;SHT31;59082;50.658;4.608;2022-07-25T06:05:43;21.29;71.67
71297;SHT31;59082;50.658;4.608;2022-07-25T06:08:09;21.19;71.71
71297;SHT31;59082;50.658;4.608;2022-07-25T06:10:34;21.11;72.12
71297;SHT31;59082;50.658;4.608;2022-07-25T06:13:00;21.11;72.45
71297;SHT31;59082;50.658;4.608;2022-07-25T06:15:25;21.01;72.89
71297;SHT31;59082;50.658;4.608;2022-07-25T06:17:51;21.08;73.13
71297;SHT31;59082;50.658;4.608;2022-07-25T06:20:16;21.06;73.19
71297;SHT31;59082;50.658;4.608;2022-07-25T06:22:42;21.16;72.97
71297;SHT31;59082;50.658;4.608;2022-07-25T06:25:08;21.39;72.49
71297;SHT31;59082;50.658;4.608;2022-07-25T06:27:34;21.46;72.48
71297;SHT31;59082;50.658;4.608;2022-07-25T06:30:03;21.42;72.40
71297;SHT31;59082;50.658;4.608;2022-07-25T06:32:28;21.33;72.80
71297;SHT31;59082;50.658;4.608;2022-07-25T06:34:54;21.28;72.94
71297;SHT31;59082;50.658;4.608;2022-07-25T06:37:19;21.18;73.28
71297;SHT31;59082;50.658;4.608;2022-07-25T06:39:45;21.22;73.40
71297;SHT31;59082;50.658;4.608;2022-07-25T06:42:11;21.13;73.42
71297;SHT31;59082;50.658;4.608;2022-07-25T06:44:36;21.15;73.46
71297;SHT31;59082;50.658;4.608;2022-07-25T06:47:02;21.23;73.23
71297;SHT31;59082;50.658;4.608;2022-07-25T06:49:28;21.22;73.03
71297;SHT31;59082;50.658;4.608;2022-07-25T06:51:54;21.59;72.80
71297;SHT31;59082;50.658;4.608;2022-07-25T06:54:19;21.51;73.52
71297;SHT31;59082;50.658;4.608;2022-07-25T06:56:45;21.54;74.14
71297;SHT31;59082;50.658;4.608;2022-07-25T06:59:10;21.47;75.46
71297;SHT31;59082;50.658;4.608;2022-07-25T07:01:36;21.51;75.68
71297;SHT31;59082;50.658;4.608;2022-07-25T07:04:03;21.76;75.47
71297;SHT31;59082;50.658;4.608;2022-07-25T07:06:28;21.49;76.01
71297;SHT31;59082;50.658;4.608;2022-07-25T07:08:54;21.86;75.82
71297;SHT31;59082;50.658;4.608;2022-07-25T07:11:20;22.26;74.77
71297;SHT31;59082;50.658;4.608;2022-07-25T07:13:46;22.79;74.09
71297;SHT31;59082;50.658;4.608;2022-07-25T07:16:11;23.07;72.48
71297;SHT31;59082;50.658;4.608;2022-07-25T07:18:37;23.12;72.65
71297;SHT31;59082;50.658;4.608;2022-07-25T07:21:04;22.96;73.08
71297;SHT31;59082;50.658;4.608;2022-07-25T07:23:30;22.74;73.89
71297;SHT31;59082;50.658;4.608;2022-07-25T07:25:55;22.97;73.35
71297;SHT31;59082;50.658;4.608;2022-07-25T07:28:21;22.96;72.76
71297;SHT31;59082;50.658;4.608;2022-07-25T07:30:46;23.37;72.26
71297;SHT31;59082;50.658;4.608;2022-07-25T07:33:12;23.01;72.72
71297;SHT31;59082;50.658;4.608;2022-07-25T07:35:38;23.27;72.68
71297;SHT31;59082;50.658;4.608;2022-07-25T07:38:04;23.14;73.09
71297;SHT31;59082;50.658;4.608;2022-07-25T07:40:29;22.80;73.83
71297;SHT31;59082;50.658;4.608;2022-07-25T07:42:55;22.76;73.82
71297;SHT31;59082;50.658;4.608;2022-07-25T07:45:23;22.89;74.26
71297;SHT31;59082;50.658;4.608;2022-07-25T07:47:51;22.69;74.60
71297;SHT31;59082;50.658;4.608;2022-07-25T07:50:19;22.72;74.69
71297;SHT31;59082;50.658;4.608;2022-07-25T07:52:46;23.07;74.08
71297;SHT31;59082;50.658;4.608;2022-07-25T07:55:12;23.34;73.94
71297;SHT31;59082;50.658;4.608;2022-07-25T07:57:57;23.38;73.21
71297;SHT31;59082;50.658;4.608;2022-07-25T08:00:24;23.18;73.78
71297;SHT31;59082;50.658;4.608;2022-07-25T08:02:53;23.11;74.20
71297;SHT31;59082;50.658;4.608;2022-07-25T08:07:52;23.38;73.84
71297;SHT31;59082;50.658;4.608;2022-07-25T08:10:26;23.70;73.10
71297;SHT31;59082;50.658;4.608;2022-07-25T08:12:51;23.39;73.66
71297;SHT31;59082;50.658;4.608;2022-07-25T08:15:18;23.48;73.42
71297;SHT31;59082;50.658;4.608;2022-07-25T08:17:45;24.18;72.95
71297;SHT31;59082;50.658;4.608;2022-07-25T08:20:12;24.20;72.16
71297;SHT31;59082;50.658;4.608;2022-07-25T08:22:39;24.54;71.62
71297;SHT31;59082;50.658;4.608;2022-07-25T08:25:07;24.61;71.10
71297;SHT31;59082;50.658;4.608;2022-07-25T08:27:33;24.34;71.41
71297;SHT31;59082;50.658;4.608;2022-07-25T08:29:59;24.58;71.12
71297;SHT31;59082;50.658;4.608;2022-07-25T08:32:28;24.61;70.86
71297;SHT31;59082;50.658;4.608;2022-07-25T08:34:54;24.88;70.53
71297;SHT31;59082;50.658;4.608;2022-07-25T08:37:20;25.27;69.86
71297;SHT31;59082;50.658;4.608;2022-07-25T08:39:45;25.17;69.72
71297;SHT31;59082;50.658;4.608;2022-07-25T08:42:11;25.38;69.59
71297;SHT31;59082;50.658;4.608;2022-07-25T08:44:40;25.47;69.41
71297;SHT31;59082;50.658;4.608;2022-07-25T08:47:08;25.70;69.14
71297;SHT31;59082;50.658;4.608;2022-07-25T08:49:34;25.88;68.99
71297;SHT31;59082;50.658;4.608;2022-07-25T08:52:02;26.44;68.28
71297;SHT31;59082;50.658;4.608;2022-07-25T08:54:30;25.47;69.22
71297;SHT31;59082;50.658;4.608;2022-07-25T08:56:55;25.08;70.84
71297;SHT31;59082;50.658;4.608;2022-07-25T08:59:21;25.75;69.06
71297;SHT31;59082;50.658;4.608;2022-07-25T09:01:46;26.65;67.63
71297;SHT31;59082;50.658;4.608;2022-07-25T09:04:12;26.70;66.96
71297;SHT31;59082;50.658;4.608;2022-07-25T09:06:48;26.76;66.48
71297;SHT31;59082;50.658;4.608;2022-07-25T09:09:13;26.95;66.69
71297;SHT31;59082;50.658;4.608;2022-07-25T09:11:39;26.74;66.92
71297;SHT31;59082;50.658;4.608;2022-07-25T09:14:11;25.94;68.14
71297;SHT31;59082;50.658;4.608;2022-07-25T09:16:42;25.71;69.19
71297;SHT31;59082;50.658;4.608;2022-07-25T09:19:15;25.65;69.13
71297;SHT31;59082;50.658;4.608;2022-07-25T09:21:43;25.91;68.42
71297;SHT31;59082;50.658;4.608;2022-07-25T09:24:16;26.33;67.81
71297;SHT31;59082;50.658;4.608;2022-07-25T09:31:50;27.45;65.23
71297;SHT31;59082;50.658;4.608;2022-07-25T09:34:32;27.91;64.09
71297;SHT31;59082;50.658;4.608;2022-07-25T09:37:00;26.28;66.87
71297;SHT31;59082;50.658;4.608;2022-07-25T09:42:13;27.84;64.19
71297;SHT31;59082;50.658;4.608;2022-07-25T09:44:39;27.96;63.37
71297;SHT31;59082;50.658;4.608;2022-07-25T09:47:12;28.02;63.33
71297;SHT31;59082;50.658;4.608;2022-07-25T09:49:43;28.72;62.13
71297;SHT31;59082;50.658;4.608;2022-07-25T09:52:09;28.58;61.58
71297;SHT31;59082;50.658;4.608;2022-07-25T09:54:35;30.10;59.36
71297;SHT31;59082;50.658;4.608;2022-07-25T09:57:01;29.34;60.96
71297;SHT31;59082;50.658;4.608;2022-07-25T09:59:27;30.08;59.03
71297;SHT31;59082;50.658;4.608;2022-07-25T10:04:45;29.27;60.34
71297;SHT31;59082;50.658;4.608;2022-07-25T10:07:13;28.45;62.88
71297;SHT31;59082;50.658;4.608;2022-07-25T10:09:47;27.39;64.57
71297;SHT31;59082;50.658;4.608;2022-07-25T10:12:18;26.18;66.08
71297;SHT31;59082;50.658;4.608;2022-07-25T10:15:08;26.70;66.17
71297;SHT31;59082;50.658;4.608;2022-07-25T10:17:35;26.84;65.02
71297;SHT31;59082;50.658;4.608;2022-07-25T10:20:01;26.15;66.64
71297;SHT31;59082;50.658;4.608;2022-07-25T10:22:44;27.02;65.08
71297;SHT31;59082;50.658;4.608;2022-07-25T10:25:15;29.27;61.34
71297;SHT31;59082;50.658;4.608;2022-07-25T10:27:45;31.40;56.82
71297;SHT31;59082;50.658;4.608;2022-07-25T10:30:23;30.12;57.40
71297;SHT31;59082;50.658;4.608;2022-07-25T10:33:00;28.97;60.03
71297;SHT31;59082;50.658;4.608;2022-07-25T10:35:27;28.77;60.72
71297;SHT31;59082;50.658;4.608;2022-07-25T10:37:56;28.15;62.13
71297;SHT31;59082;50.658;4.608;2022-07-25T10:40:44;26.77;63.98
71297;SHT31;59082;50.658;4.608;2022-07-25T10:43:18;26.42;65.53
71297;SHT31;59082;50.658;4.608;2022-07-25T10:45:48;26.83;64.78
71297;SHT31;59082;50.658;4.608;2022-07-25T10:48:43;28.02;62.35
71297;SHT31;59082;50.658;4.608;2022-07-25T10:51:11;29.10;59.88
71297;SHT31;59082;50.658;4.608;2022-07-25T10:53:43;28.17;60.98
71297;SHT31;59082;50.658;4.608;2022-07-25T10:56:17;28.14;60.52
71297;SHT31;59082;50.658;4.608;2022-07-25T10:59:04;28.15;60.20
71297;SHT31;59082;50.658;4.608;2022-07-25T11:01:30;27.79;60.27
71297;SHT31;59082;50.658;4.608;2022-07-25T11:04:01;27.60;60.60
71297;SHT31;59082;50.658;4.608;2022-07-25T11:06:33;26.92;62.51
71297;SHT31;59082;50.658;4.608;2022-07-25T11:08:59;26.64;62.85
71297;SHT31;59082;50.658;4.608;2022-07-25T11:11:36;26.43;63.89
71297;SHT31;59082;50.658;4.608;2022-07-25T11:14:02;25.94;64.83
71297;SHT31;59082;50.658;4.608;2022-07-25T11:16:28;25.17;66.02
71297;SHT31;59082;50.658;4.608;2022-07-25T11:18:54;25.02;67.09
71297;SHT31;59082;50.658;4.608;2022-07-25T11:21:19;24.75;67.09
71297;SHT31;59082;50.658;4.608;2022-07-25T11:23:51;24.28;67.97
71297;SHT31;59082;50.658;4.608;2022-07-25T11:26:17;24.20;68.29
71297;SHT31;59082;50.658;4.608;2022-07-25T11:28:44;24.34;68.49
71297;SHT31;59082;50.658;4.608;2022-07-25T11:31:12;24.33;68.13
71297;SHT31;59082;50.658;4.608;2022-07-25T11:33:39;24.02;68.37
71297;SHT31;59082;50.658;4.608;2022-07-25T11:36:06;24.03;68.69
71297;SHT31;59082;50.658;4.608;2022-07-25T11:38:33;24.50;67.93
71297;SHT31;59082;50.658;4.608;2022-07-25T11:40:59;24.35;68.33
71297;SHT31;59082;50.658;4.608;2022-07-25T11:43:25;24.13;68.81
71297;SHT31;59082;50.658;4.608;2022-07-25T11:46:01;23.83;69.59
71297;SHT31;59082;50.658;4.608;2022-07-25T11:48:32;23.69;70.24
71297;SHT31;59082;50.658;4.608;2022-07-25T11:51:11;23.20;71.02
71297;SHT31;59082;50.658;4.608;2022-07-25T11:53:41;23.04;71.86
71297;SHT31;59082;50.658;4.608;2022-07-25T11:56:18;22.56;72.74
71297;SHT31;59082;50.658;4.608;2022-07-25T11:58:58;22.51;73.12
71297;SHT31;59082;50.658;4.608;2022-07-25T12:01:25;22.57;73.38
71297;SHT31;59082;50.658;4.608;2022-07-25T12:04:10;22.36;73.67
71297;SHT31;59082;50.658;4.608;2022-07-25T12:06:35;22.49;74.15
71297;SHT31;59082;50.658;4.608;2022-07-25T12:09:13;22.05;75.59
71297;SHT31;59082;50.658;4.608;2022-07-25T12:11:39;22.31;75.44
71297;SHT31;59082;50.658;4.608;2022-07-25T12:14:05;22.59;74.54
71297;SHT31;59082;50.658;4.608;2022-07-25T12:16:31;22.41;73.43
71297;SHT31;59082;50.658;4.608;2022-07-25T12:18:57;23.01;71.94
71297;SHT31;59082;50.658;4.608;2022-07-25T12:21:23;23.45;70.20
71297;SHT31;59082;50.658;4.608;2022-07-25T12:23:48;24.93;67.91
71297;SHT31;59082;50.658;4.608;2022-07-25T12:26:14;25.44;66.70
71297;SHT31;59082;50.658;4.608;2022-07-25T12:28:39;26.63;64.55
71297;SHT31;59082;50.658;4.608;2022-07-25T12:31:05;27.39;62.25
71297;SHT31;59082;50.658;4.608;2022-07-25T12:33:31;30.53;57.66
71297;SHT31;59082;50.658;4.608;2022-07-25T12:35:58;29.00;59.57
71297;SHT31;59082;50.658;4.608;2022-07-25T12:38:24;29.72;57.35
71297;SHT31;59082;50.658;4.608;2022-07-25T12:40:49;31.81;53.19
71297;SHT31;59082;50.658;4.608;2022-07-25T12:43:15;31.46;54.14
71297;SHT31;59082;50.658;4.608;2022-07-25T12:45:40;32.51;52.03
71297;SHT31;59082;50.658;4.608;2022-07-25T12:48:07;30.63;54.50
71297;SHT31;59082;50.658;4.608;2022-07-25T12:50:33;28.63;57.42
71297;SHT31;59082;50.658;4.608;2022-07-25T12:52:59;28.01;58.56
71297;SHT31;59082;50.658;4.608;2022-07-25T12:55:25;26.73;59.91
71297;SHT31;59082;50.658;4.608;2022-07-25T12:57:50;26.69;61.66
71297;SHT31;59082;50.658;4.608;2022-07-25T13:00:19;25.68;63.61
71297;SHT31;59082;50.658;4.608;2022-07-25T13:02:45;25.56;63.51
71297;SHT31;59082;50.658;4.608;2022-07-25T13:05:11;25.47;63.11
71297;SHT31;59082;50.658;4.608;2022-07-25T13:07:36;24.34;65.17
71297;SHT31;59082;50.658;4.608;2022-07-25T13:10:03;24.06;66.23
71297;SHT31;59082;50.658;4.608;2022-07-25T13:12:29;24.07;66.78
71297;SHT31;59082;50.658;4.608;2022-07-25T13:14:55;24.45;66.13
71297;SHT31;59082;50.658;4.608;2022-07-25T13:17:20;24.54;66.00
71297;SHT31;59082;50.658;4.608;2022-07-25T13:19:46;24.43;66.26
71297;SHT31;59082;50.658;4.608;2022-07-25T13:22:12;24.78;65.70
71297;SHT31;59082;50.658;4.608;2022-07-25T13:24:37;26.11;64.25
71297;SHT31;59082;50.658;4.608;2022-07-25T13:27:04;26.09;63.26
71297;SHT31;59082;50.658;4.608;2022-07-25T13:29:30;26.02;63.81
71297;SHT31;59082;50.658;4.608;2022-07-25T13:31:55;26.18;63.38
71297;SHT31;59082;50.658;4.608;2022-07-25T13:34:21;26.65;62.24
71297;SHT31;59082;50.658;4.608;2022-07-25T13:36:46;25.89;63.75
71297;SHT31;59082;50.658;4.608;2022-07-25T13:39:12;25.92;64.30
71297;SHT31;59082;50.658;4.608;2022-07-25T13:41:37;27.70;61.33
71297;SHT31;59082;50.658;4.608;2022-07-25T13:44:03;32.69;52.73
71297;SHT31;59082;50.658;4.608;2022-07-25T13:46:30;34.23;49.58
71297;SHT31;59082;50.658;4.608;2022-07-25T13:48:56;36.18;46.82
71297;SHT31;59082;50.658;4.608;2022-07-25T13:51:21;33.46;49.16
71297;SHT31;59082;50.658;4.608;2022-07-25T13:53:47;31.33;51.98
71297;SHT31;59082;50.658;4.608;2022-07-25T13:56:12;28.29;57.09
71297;SHT31;59082;50.658;4.608;2022-07-25T13:58:39;26.77;60.75
71297;SHT31;59082;50.658;4.608;2022-07-25T14:01:05;25.82;62.79
71297;SHT31;59082;50.658;4.608;2022-07-25T14:03:32;25.85;62.81
71297;SHT31;59082;50.658;4.608;2022-07-25T14:05:57;26.70;61.26
71297;SHT31;59082;50.658;4.608;2022-07-25T14:08:23;28.53;56.74
71297;SHT31;59082;50.658;4.608;2022-07-25T14:10:51;33.80;49.32
71297;SHT31;59082;50.658;4.608;2022-07-25T14:13:17;38.86;42.89
71297;SHT31;59082;50.658;4.608;2022-07-25T14:15:43;41.32;39.71
71297;SHT31;59082;50.658;4.608;2022-07-25T14:18:09;45.49;36.43
71297;SHT31;59082;50.658;4.608;2022-07-25T14:20:35;41.69;37.84
71297;SHT31;59082;50.658;4.608;2022-07-25T14:23:00;32.09;48.63
71297;SHT31;59082;50.658;4.608;2022-07-25T14:25:26;35.84;44.11
71297;SHT31;59082;50.658;4.608;2022-07-25T14:27:51;34.67;45.97
71297;SHT31;59082;50.658;4.608;2022-07-25T14:30:17;30.48;51.35
71297;SHT31;59082;50.658;4.608;2022-07-25T14:32:42;28.02;54.87
71297;SHT31;59082;50.658;4.608;2022-07-25T14:35:08;28.04;55.25
71297;SHT31;59082;50.658;4.608;2022-07-25T14:37:39;29.83;53.35
71297;SHT31;59082;50.658;4.608;2022-07-25T14:40:06;33.18;47.39
71297;SHT31;59082;50.658;4.608;2022-07-25T14:42:32;32.28;47.66
71297;SHT31;59082;50.658;4.608;2022-07-25T14:44:57;33.72;46.72
71297;SHT31;59082;50.658;4.608;2022-07-25T14:47:23;31.29;48.63
71297;SHT31;59082;50.658;4.608;2022-07-25T14:49:48;31.87;48.43
71297;SHT31;59082;50.658;4.608;2022-07-25T14:52:14;34.48;44.87
71297;SHT31;59082;50.658;4.608;2022-07-25T14:54:40;34.36;45.06
71297;SHT31;59082;50.658;4.608;2022-07-25T14:57:07;39.74;39.17
71297;SHT31;59082;50.658;4.608;2022-07-25T14:59:33;36.72;41.61
71297;SHT31;59082;50.658;4.608;2022-07-25T15:01:58;39.20;39.17
71297;SHT31;59082;50.658;4.608;2022-07-25T15:04:24;41.37;37.29
71297;SHT31;59082;50.658;4.608;2022-07-25T15:06:50;39.05;38.67
71297;SHT31;59082;50.658;4.608;2022-07-25T15:09:17;35.97;42.23
71297;SHT31;59082;50.658;4.608;2022-07-25T15:11:43;36.28;41.90
71297;SHT31;59082;50.658;4.608;2022-07-25T15:14:10;32.25;46.50
71297;SHT31;59082;50.658;4.608;2022-07-25T15:16:36;37.83;40.73
71297;SHT31;59082;50.658;4.608;2022-07-25T15:19:02;33.88;43.83
71297;SHT31;59082;50.658;4.608;2022-07-25T15:21:28;30.74;48.15
71297;SHT31;59082;50.658;4.608;2022-07-25T15:23:54;30.40;48.82
71297;SHT31;59082;50.658;4.608;2022-07-25T15:26:22;30.61;48.22
71297;SHT31;59082;50.658;4.608;2022-07-25T15:28:48;38.60;39.24
71297;SHT31;59082;50.658;4.608;2022-07-25T15:31:13;33.04;44.58
71297;SHT31;59082;50.658;4.608;2022-07-25T15:33:39;36.62;41.06
71297;SHT31;59082;50.658;4.608;2022-07-25T15:36:05;38.51;38.38
71297;SHT31;59082;50.658;4.608;2022-07-25T15:38:31;40.12;37.61
71297;SHT31;59082;50.658;4.608;2022-07-25T15:41:17;39.88;37.35